GB-0254 weather

Gutchpool Farm Airstrip
England, United Kingdom

Public forecast

Using degrees Celsius for public forecast. Weather courtesy of forecast.io.

Closest aviation weather report (METAR) to Gutchpool Farm Airstrip

Closest report is RNAS Yeovilton, 15.6 nm (28.8 km) W. Retrieved 2020/04/02 15:19 UTC (13 minutes ago):

EGDY 021519Z 29017KT 9999 SCT028 13/06 Q1016 NOSIG RMK BLU BLU

Closest aviation forecast (TAF) to Gutchpool Farm Airstrip

Forecast is more than 12 hours old.

Closest forecast is RNAS Yeovilton, 15.6 nm (28.8 km) W. Retrieved 2019/05/01 18:06 UTC (11 months ago):

TAF TAF EGDY 010100Z 3018/0103 CNL